Time;durP1;ratioP1;P1;durP2;ratioP2;P2;SDS_P1;SDS_P2;PMS_P1;PMS_P2;Temp;Humidity;BMP_temperature;BMP_pressure;BME280_temperature;BME280_humidity;BME280_pressure;Samples;Min_cycle;Max_cycle;Signal;HPM_P1;HPM_P2
2021/10/27 04:02:41;;;;;;;9.93;3.90;;;6.60;96.30;;;;;;4990569;28;20477;-79
2021/10/27 04:05:08;;;;;;;6.43;4.90;;;6.50;96.30;;;;;;4974836;28;20418;-79
2021/10/27 04:07:36;;;;;;;4.63;4.10;;;6.50;96.30;;;;;;4975430;28;20406;-79
2021/10/27 04:10:07;;;;;;;6.97;4.60;;;6.40;96.30;;;;;;4957718;28;20765;-78
2021/10/27 04:12:34;;;;;;;6.67;5.00;;;6.40;96.30;;;;;;4992537;28;20995;-78
2021/10/27 04:15:00;;;;;;;3.70;3.40;;;6.30;96.30;;;;;;4994430;28;20443;-81
2021/10/27 04:17:25;;;;;;;7.50;4.40;;;6.30;96.30;;;;;;4978809;28;20445;-80
2021/10/27 04:19:51;;;;;;;6.97;4.60;;;6.20;96.30;;;;;;4994678;28;20794;-82
2021/10/27 04:22:16;;;;;;;6.43;4.80;;;6.10;96.30;;;;;;4993010;28;20196;-82
2021/10/27 04:24:42;;;;;;;6.90;3.40;;;6.10;96.30;;;;;;4977356;28;20284;-82
2021/10/27 04:27:08;;;;;;;7.63;5.30;;;6.00;96.30;;;;;;4977602;28;20220;-82
2021/10/27 04:29:33;;;;;;;12.17;6.53;;;5.90;96.30;;;;;;4993766;28;20177;-82
2021/10/27 04:31:59;;;;;;;39.90;24.37;;;5.80;96.30;;;;;;4994351;28;20193;-82
2021/10/27 04:34:25;;;;;;;82.03;50.43;;;6.10;96.30;;;;;;4995159;28;20181;-81
2021/10/27 04:36:51;;;;;;;52.80;33.33;;;6.00;96.30;;;;;;4977012;28;20201;-82
2021/10/27 04:39:16;;;;;;;7.80;6.50;;;6.10;96.30;;;;;;4977270;28;20452;-81
2021/10/27 04:41:42;;;;;;;15.57;10.43;;;6.20;96.30;;;;;;4976614;28;20205;-82
2021/10/27 04:44:07;;;;;;;11.50;6.73;;;6.30;96.30;;;;;;4977238;28;20195;-82
2021/10/27 04:46:33;;;;;;;8.60;5.33;;;6.30;96.30;;;;;;4995371;28;20169;-82
2021/10/27 04:48:59;;;;;;;6.67;5.53;;;6.40;96.30;;;;;;4977368;28;20704;-82
2021/10/27 04:51:24;;;;;;;7.30;5.07;;;6.50;96.30;;;;;;5011773;28;20244;-82
2021/10/27 04:53:50;;;;;;;14.00;9.87;;;6.60;96.30;;;;;;5013058;28;20240;-82
2021/10/27 04:56:15;;;;;;;14.23;9.13;;;6.60;96.30;;;;;;5014075;28;20169;-81
2021/10/27 04:58:41;;;;;;;7.37;5.40;;;6.70;96.30;;;;;;4996142;28;20177;-80
2021/10/27 05:01:06;;;;;;;4.27;3.87;;;6.70;96.30;;;;;;5013358;28;20236;-82
2021/10/27 05:03:32;;;;;;;4.90;4.03;;;6.70;96.30;;;;;;5012616;28;20181;-82
2021/10/27 05:05:59;;;;;;;9.70;7.90;;;6.80;96.30;;;;;;5013629;28;20189;-81
2021/10/27 05:08:24;;;;;;;16.17;12.23;;;6.90;96.30;;;;;;5012813;28;20177;-82
2021/10/27 05:10:53;;;;;;;7.07;3.30;;;6.90;96.30;;;;;;4996133;28;20539;-81
2021/10/27 05:13:19;;;;;;;6.70;4.07;;;6.90;96.30;;;;;;5012059;28;20224;-81
2021/10/27 05:15:46;;;;;;;5.37;3.43;;;6.80;96.30;;;;;;4996576;28;20438;-82
2021/10/27 05:18:12;;;;;;;4.27;2.83;;;6.70;96.30;;;;;;4996368;28;20263;-81
2021/10/27 05:20:38;;;;;;;4.97;3.00;;;6.80;96.30;;;;;;4996066;28;20439;-81
2021/10/27 05:23:03;;;;;;;7.20;3.57;;;6.90;96.30;;;;;;4994761;28;20431;-81
2021/10/27 05:25:29;;;;;;;3.90;3.10;;;6.90;96.30;;;;;;4996121;28;20696;-81
2021/10/27 05:27:54;;;;;;;4.27;2.70;;;6.90;96.30;;;;;;5012018;28;20187;-81
2021/10/27 05:30:20;;;;;;;3.57;2.80;;;6.70;96.30;;;;;;5011488;28;20701;-79
2021/10/27 05:32:46;;;;;;;4.70;3.07;;;6.80;96.30;;;;;;5012080;28;20200;-81
2021/10/27 05:35:12;;;;;;;6.37;3.47;;;6.70;96.30;;;;;;4996220;28;20583;-81
2021/10/27 05:37:37;;;;;;;4.90;2.80;;;6.60;96.30;;;;;;4995851;28;20175;-81
2021/10/27 05:40:04;;;;;;;4.13;3.30;;;6.60;96.30;;;;;;4996166;28;20176;-81
2021/10/27 05:42:30;;;;;;;3.33;2.70;;;6.50;96.30;;;;;;5013120;28;20291;-81
2021/10/27 05:44:57;;;;;;;4.17;3.13;;;6.50;96.30;;;;;;5013442;28;20509;-81
2021/10/27 05:47:23;;;;;;;4.30;3.13;;;6.40;96.30;;;;;;4996224;28;20419;-81
2021/10/27 05:49:53;;;;;;;4.50;2.90;;;6.50;96.30;;;;;;5016750;28;20482;-81
2021/10/27 05:57:40;;;;;;;3.73;3.10;;;6.90;96.30;;;;;;5014255;28;20411;-81
2021/10/27 06:00:08;;;;;;;8.00;3.40;;;6.90;96.30;;;;;;5013675;28;20391;-81
2021/10/27 06:02:34;;;;;;;3.33;2.97;;;7.00;96.30;;;;;;4995754;28;20476;-81
2021/10/27 06:04:59;;;;;;;5.03;2.90;;;7.30;96.30;;;;;;4998112;28;20428;-81
2021/10/27 06:07:25;;;;;;;3.47;2.70;;;7.40;96.30;;;;;;5013138;28;20176;-80
2021/10/27 06:09:53;;;;;;;2.77;2.47;;;7.50;96.30;;;;;;5014212;28;20176;-81
2021/10/27 06:12:19;;;;;;;3.83;2.93;;;7.50;96.30;;;;;;5012463;28;20220;-81
2021/10/27 06:14:45;;;;;;;5.57;3.10;;;7.40;96.30;;;;;;5014482;28;20958;-82
2021/10/27 06:17:11;;;;;;;8.40;2.90;;;7.40;96.30;;;;;;5016874;28;20586;-82
2021/10/27 06:19:37;;;;;;;3.13;2.47;;;7.50;96.30;;;;;;5013866;28;20510;-82
2021/10/27 06:22:03;;;;;;;2.70;2.40;;;7.60;96.30;;;;;;5013015;28;20923;-81
2021/10/27 06:24:30;;;;;;;3.37;3.07;;;7.60;96.30;;;;;;5013231;28;20232;-81
2021/10/27 06:26:55;;;;;;;6.80;2.90;;;7.80;96.30;;;;;;5014289;28;20580;-82
2021/10/27 06:35:06;;;;;;;3.40;2.40;;;8.70;96.30;;;;;;5015415;28;20406;-81
2021/10/27 06:48:28;;;;;;;2.60;2.27;;;9.00;96.30;;;;;;5015199;28;20894;-81
2021/10/27 06:50:53;;;;;;;3.83;2.30;;;9.00;96.30;;;;;;5014322;28;20436;-81
2021/10/27 06:53:19;;;;;;;4.40;2.87;;;8.90;96.30;;;;;;4996114;28;20297;-80
2021/10/27 06:55:45;;;;;;;4.10;2.13;;;9.00;96.30;;;;;;4997448;28;20173;-80
2021/10/27 06:58:13;;;;;;;5.63;2.00;;;9.00;96.30;;;;;;4997508;28;20495;-80
2021/10/27 07:00:59;;;;;;;8.60;2.13;;;9.00;96.30;;;;;;5015866;28;20448;-80
2021/10/27 07:03:45;;;;;;;2.63;1.93;;;9.00;96.30;;;;;;4997519;28;20406;-82
2021/10/27 07:06:39;;;;;;;2.77;2.00;;;9.00;96.30;;;;;;4997818;28;20416;-82
2021/10/27 07:17:17;;;;;;;3.47;2.40;;;9.30;96.30;;;;;;5014254;28;20993;-81
2021/10/27 07:19:43;;;;;;;3.20;2.00;;;9.30;96.30;;;;;;5014780;28;20400;-81
2021/10/27 07:22:13;;;;;;;2.30;2.03;;;9.30;96.30;;;;;;5003909;28;20243;-80
2021/10/27 07:24:38;;;;;;;4.10;2.30;;;9.30;96.30;;;;;;5014850;28;20193;-80
2021/10/27 07:27:06;;;;;;;6.07;2.23;;;9.40;96.30;;;;;;4997356;28;20400;-80
2021/10/27 07:29:32;;;;;;;5.13;2.40;;;9.40;96.30;;;;;;5015060;28;20610;-79
2021/10/27 07:31:58;;;;;;;2.97;1.80;;;9.40;96.30;;;;;;4997074;28;20479;-80
2021/10/27 07:34:32;;;;;;;3.20;1.63;;;9.40;96.30;;;;;;5014963;28;20761;-81
2021/10/27 07:42:23;;;;;;;2.70;1.73;;;9.40;96.30;;;;;;5014512;28;20450;-80
2021/10/27 07:44:48;;;;;;;3.20;2.07;;;9.40;96.30;;;;;;4998749;28;20491;-79
2021/10/27 07:47:14;;;;;;;2.87;1.80;;;9.40;96.30;;;;;;5002017;28;20444;-80
2021/10/27 07:49:40;;;;;;;5.20;2.07;;;9.40;96.30;;;;;;5008978;28;20173;-81
2021/10/27 07:52:06;;;;;;;4.77;1.80;;;9.50;96.30;;;;;;5038705;28;20192;-80
2021/10/27 07:54:33;;;;;;;5.43;2.13;;;9.50;96.30;;;;;;5020836;28;20196;-80
2021/10/27 07:56:59;;;;;;;2.70;2.00;;;9.50;96.30;;;;;;5039109;28;20411;-81
2021/10/27 07:59:24;;;;;;;2.90;2.20;;;9.50;96.30;;;;;;5028406;28;20417;-80
2021/10/27 08:01:50;;;;;;;2.43;1.90;;;9.60;96.30;;;;;;5006629;28;20820;-79
2021/10/27 08:04:15;;;;;;;5.73;2.07;;;9.60;96.30;;;;;;5001146;28;20641;-81
2021/10/27 08:06:44;;;;;;;3.23;2.00;;;9.70;96.30;;;;;;5001398;28;20181;-79
2021/10/27 08:09:09;;;;;;;3.00;1.83;;;9.70;96.30;;;;;;5013888;28;20267;-80
2021/10/27 08:11:35;;;;;;;5.20;1.90;;;9.70;96.30;;;;;;5036987;28;20884;-79
2021/10/27 08:14:01;;;;;;;4.10;1.73;;;9.70;96.30;;;;;;5039654;28;20199;-80
2021/10/27 08:16:26;;;;;;;3.20;1.93;;;9.80;96.30;;;;;;5035313;28;20231;-80
2021/10/27 08:18:52;;;;;;;3.30;2.23;;;9.70;96.30;;;;;;5018499;28;20177;-80
2021/10/27 08:21:17;;;;;;;2.60;2.27;;;9.80;96.30;;;;;;5037374;28;20188;-79
2021/10/27 08:23:45;;;;;;;2.30;2.10;;;9.80;96.30;;;;;;5037474;28;20702;-80
2021/10/27 08:26:15;;;;;;;3.50;2.30;;;10.00;96.30;;;;;;5019989;28;20165;-80
2021/10/27 08:28:43;;;;;;;6.03;2.10;;;10.00;96.30;;;;;;5001581;28;20474;-80
2021/10/27 08:31:31;;;;;;;3.63;2.30;;;10.10;96.30;;;;;;5018599;28;20439;-80
2021/10/27 08:36:24;;;;;;;5.53;2.30;;;10.10;96.30;;;;;;5033550;28;20457;-79
2021/10/27 08:38:50;;;;;;;12.47;2.30;;;10.00;96.30;;;;;;5039256;28;20231;-79
2021/10/27 08:41:16;;;;;;;2.80;2.10;;;10.10;96.30;;;;;;5022465;28;20443;-81
2021/10/27 08:43:42;;;;;;;3.07;2.27;;;9.90;96.30;;;;;;5027755;28;20447;-80
2021/10/27 08:46:08;;;;;;;6.27;2.60;;;9.90;96.30;;;;;;5047180;28;20422;-81
2021/10/27 08:48:35;;;;;;;2.40;1.97;;;9.90;96.30;;;;;;5039854;28;20188;-79
2021/10/27 08:51:06;;;;;;;3.40;2.03;;;10.00;96.30;;;;;;5020254;28;20449;-80
2021/10/27 08:53:35;;;;;;;1.97;1.70;;;10.00;96.30;;;;;;5038802;28;20442;-80
2021/10/27 08:56:03;;;;;;;3.10;2.47;;;10.00;96.30;;;;;;5038361;28;20541;-78
2021/10/27 08:58:40;;;;;;;2.57;1.80;;;10.10;96.30;;;;;;5040053;28;20915;-79
2021/10/27 09:04:25;;;;;;;3.70;2.13;;;10.10;96.30;;;;;;5040370;28;20927;-80
2021/10/27 09:07:30;;;;;;;3.33;1.90;;;10.10;96.30;;;;;;5023985;28;20392;-81
2021/10/27 09:16:01;;;;;;;12.77;1.97;;;10.50;96.30;;;;;;5014587;28;20495;-81
2021/10/27 09:46:36;;;;;;;6.20;2.00;;;10.90;96.30;;;;;;5013761;28;20420;-81
2021/10/27 10:05:16;;;;;;;1.73;1.27;;;11.30;96.30;;;;;;5033586;28;20460;-81
2021/10/27 10:07:42;;;;;;;3.10;1.50;;;11.50;96.30;;;;;;5033307;28;20419;-80
2021/10/27 10:10:09;;;;;;;3.07;1.63;;;11.50;96.30;;;;;;5028533;28;20553;-81
2021/10/27 10:12:48;;;;;;;6.03;1.63;;;11.50;96.30;;;;;;5032627;28;20215;-81
2021/10/27 10:15:14;;;;;;;2.23;1.40;;;11.60;96.30;;;;;;5032390;28;20450;-80
2021/10/27 10:17:45;;;;;;;4.23;1.47;;;11.70;96.30;;;;;;5034990;28;20482;-81
2021/10/27 10:20:13;;;;;;;5.23;1.60;;;11.90;96.30;;;;;;5033658;28;20426;-80
2021/10/27 10:22:42;;;;;;;3.27;1.30;;;11.80;96.30;;;;;;5031658;28;20497;-81
2021/10/27 10:25:14;;;;;;;4.33;1.63;;;11.80;96.30;;;;;;5033561;28;20915;-81
2021/10/27 10:27:42;;;;;;;1.77;1.50;;;12.20;96.30;;;;;;5024989;28;20467;-80
2021/10/27 10:30:22;;;;;;;1.30;1.10;;;12.50;96.30;;;;;;5014714;28;20416;-81
2021/10/27 10:33:07;;;;;;;1.87;1.10;;;12.70;96.30;;;;;;4995835;28;20525;-79
2021/10/27 10:39:26;;;;;;;1.63;1.10;;;12.90;96.30;;;;;;5033822;28;20444;-80
2021/10/27 10:44:40;;;;;;;2.80;0.87;;;13.00;96.30;;;;;;5033811;28;20465;-80
2021/10/27 11:24:03;;;;;;;1.23;0.90;;;12.10;96.30;;;;;;5017982;28;20395;-80
2021/10/27 11:40:24;;;;;;;1.13;0.70;;;11.70;96.30;;;;;;5018015;28;20470;-80
2021/10/27 11:42:56;;;;;;;3.33;1.00;;;11.80;96.30;;;;;;4999142;28;20408;-78
2021/10/27 11:48:04;;;;;;;1.60;1.17;;;11.80;96.30;;;;;;5017436;28;20400;-80
2021/10/27 11:50:39;;;;;;;0.90;0.67;;;11.80;96.30;;;;;;5016067;28;20415;-81
2021/10/27 11:53:06;;;;;;;1.90;1.00;;;11.80;96.30;;;;;;5016972;28;20951;-80
2021/10/27 11:55:37;;;;;;;0.90;0.70;;;11.80;96.30;;;;;;5000110;28;20416;-80
2021/10/27 11:58:04;;;;;;;1.00;0.70;;;12.00;96.30;;;;;;5017356;28;20424;-80
2021/10/27 12:00:38;;;;;;;1.00;0.70;;;12.00;96.30;;;;;;5016064;28;20479;-81
2021/10/27 12:05:44;;;;;;;1.43;0.70;;;11.90;96.30;;;;;;5017902;28;20439;-80
2021/10/27 12:16:30;;;;;;;1.00;0.80;;;11.80;96.30;;;;;;5021893;28;20426;-80
2021/10/27 12:18:57;;;;;;;1.20;1.00;;;11.80;96.30;;;;;;5028656;28;20430;-81
2021/10/27 12:21:26;;;;;;;1.10;0.90;;;11.80;96.30;;;;;;5031109;28;20790;-81
2021/10/27 12:23:52;;;;;;;1.00;0.70;;;11.80;96.30;;;;;;5019378;28;20431;-80
2021/10/27 12:26:19;;;;;;;0.90;0.63;;;11.70;96.30;;;;;;5017564;28;20423;-78
2021/10/27 12:28:46;;;;;;;1.00;0.80;;;11.60;96.30;;;;;;5017966;28;20428;-78
2021/10/27 12:31:25;;;;;;;0.90;0.67;;;11.50;96.30;;;;;;5015002;28;20439;-79
2021/10/27 12:33:51;;;;;;;1.23;1.00;;;11.50;96.30;;;;;;4998413;28;20474;-79
2021/10/27 12:36:30;;;;;;;4.20;0.70;;;11.50;96.30;;;;;;5031260;28;20419;-78
2021/10/27 12:39:28;;;;;;;1.00;0.80;;;11.40;96.30;;;;;;5021223;28;20404;-78
2021/10/27 12:42:04;;;;;;;1.10;0.80;;;11.40;96.30;;;;;;5012846;28;20466;-76
2021/10/27 12:44:30;;;;;;;2.90;0.73;;;11.50;96.30;;;;;;5014086;28;20419;-77
2021/10/27 12:47:08;;;;;;;2.77;1.13;;;11.60;96.30;;;;;;5014455;28;20423;-77
2021/10/27 12:49:33;;;;;;;2.23;0.90;;;11.60;96.30;;;;;;4993526;28;20420;-75
2021/10/27 12:52:29;;;;;;;0.90;0.60;;;11.50;96.30;;;;;;5014073;28;20440;-75
2021/10/27 12:55:19;;;;;;;1.20;0.90;;;11.40;96.30;;;;;;5014440;28;20160;-75
2021/10/27 12:58:09;;;;;;;1.80;0.97;;;11.40;96.30;;;;;;4996907;28;20408;-75
2021/10/27 13:00:55;;;;;;;1.97;1.13;;;11.40;96.30;;;;;;5014012;28;20506;-75
2021/10/27 13:08:58;;;;;;;1.27;1.00;;;11.50;96.30;;;;;;4994352;28;20392;-75
2021/10/27 13:30:11;;;;;;;1.63;1.47;;;11.40;96.30;;;;;;5013760;28;20937;-77
2021/10/27 13:32:41;;;;;;;1.73;1.10;;;11.40;96.30;;;;;;5010521;28;20975;-77
2021/10/27 13:35:07;;;;;;;1.20;0.97;;;11.40;96.30;;;;;;5013372;28;20447;-77
2021/10/27 13:37:34;;;;;;;3.50;1.20;;;11.50;96.30;;;;;;5013420;28;20978;-76
2021/10/27 13:40:00;;;;;;;2.77;1.80;;;11.50;96.30;;;;;;5012510;28;20422;-79
2021/10/27 13:42:38;;;;;;;1.80;1.60;;;11.50;96.30;;;;;;4994665;28;20482;-78
2021/10/27 13:47:36;;;;;;;3.40;2.00;;;11.30;96.30;;;;;;5013350;28;20400;-77
2021/10/27 13:57:51;;;;;;;2.10;2.00;;;11.30;96.30;;;;;;5012887;28;20427;-77
2021/10/27 14:06:38;;;;;;;3.13;2.80;;;11.20;96.30;;;;;;4999388;28;20447;-77
2021/10/27 14:10:14;;;;;;;2.90;2.53;;;11.00;96.30;;;;;;4995171;28;20505;-77
2021/10/27 14:12:19;;;;;;;4.87;3.23;;;10.90;96.30;;;;;;4994680;28;20440;-78
2021/10/27 14:15:07;;;;;;;3.13;2.90;;;10.90;96.30;;;;;;5012235;28;20777;-78
2021/10/27 14:17:50;;;;;;;3.77;3.37;;;10.90;96.30;;;;;;5012618;28;20790;-79
2021/10/27 14:20:26;;;;;;;5.03;3.70;;;10.80;96.30;;;;;;5012252;28;20407;-77
2021/10/27 14:23:22;;;;;;;3.30;3.00;;;10.80;96.30;;;;;;4994387;28;20434;-77
2021/10/27 14:39:54;;;;;;;4.63;3.67;;;10.60;96.30;;;;;;5011328;28;20414;-78
2021/10/27 14:48:10;;;;;;;3.57;3.27;;;10.50;96.30;;;;;;5013431;28;20492;-77
2021/10/27 14:50:56;;;;;;;2.93;2.73;;;10.50;96.30;;;;;;5012746;28;21375;-79
2021/10/27 14:59:09;;;;;;;5.70;3.53;;;10.50;96.30;;;;;;5017153;28;20390;-76
2021/10/27 15:21:16;;;;;;;3.47;2.50;;;10.50;96.30;;;;;;5015674;28;21037;-77
2021/10/27 15:27:36;;;;;;;2.87;2.57;;;10.50;96.30;;;;;;5015748;28;20430;-77
2021/10/27 15:29:07;;;;;;;3.20;2.90;;;10.50;96.30;;;;;;5015151;28;20792;-77
2021/10/27 15:31:42;;;;;;;3.40;3.10;;;10.40;96.30;;;;;;5014984;28;20427;-77
2021/10/27 15:42:39;;;;;;;6.80;4.70;;;10.20;96.30;;;;;;5014901;28;20562;-77
2021/10/27 15:52:54;;;;;;;3.50;3.20;;;9.70;96.30;;;;;;5015249;28;20521;-77
2021/10/27 15:55:20;;;;;;;3.00;2.70;;;9.60;96.30;;;;;;5016132;28;20407;-77
2021/10/27 15:57:46;;;;;;;3.13;2.43;;;9.40;96.30;;;;;;5015755;28;20240;-77
2021/10/27 16:00:12;;;;;;;6.53;2.60;;;9.20;96.30;;;;;;5019048;28;20553;-80
2021/10/27 16:02:37;;;;;;;2.87;2.40;;;9.00;96.30;;;;;;5007221;28;20225;-79
2021/10/27 16:05:05;;;;;;;2.67;2.47;;;8.80;96.30;;;;;;5003818;28;20427;-81
2021/10/27 16:07:33;;;;;;;2.60;2.10;;;8.60;96.30;;;;;;5018467;28;20315;-80
2021/10/27 16:10:03;;;;;;;4.03;3.17;;;8.30;96.30;;;;;;5021078;28;20431;-80
2021/10/27 16:12:29;;;;;;;3.50;3.07;;;8.00;96.30;;;;;;5032294;28;20523;-80
2021/10/27 16:14:57;;;;;;;4.50;3.10;;;7.90;96.30;;;;;;5021554;28;20451;-80
2021/10/27 16:17:22;;;;;;;4.97;3.50;;;7.80;96.30;;;;;;5015687;28;20162;-80
2021/10/27 16:19:48;;;;;;;4.73;3.30;;;7.80;96.30;;;;;;5014649;28;20483;-81
2021/10/27 16:22:14;;;;;;;3.90;3.10;;;7.70;96.30;;;;;;5012340;28;20212;-81
2021/10/27 16:24:40;;;;;;;4.00;3.30;;;7.50;96.30;;;;;;4997628;28;20177;-81
2021/10/27 16:27:06;;;;;;;6.23;3.50;;;7.40;96.30;;;;;;5014574;28;20169;-81
2021/10/27 16:29:32;;;;;;;5.57;4.13;;;7.20;96.30;;;;;;5014751;28;20904;-81
2021/10/27 16:31:57;;;;;;;3.60;3.10;;;7.10;96.30;;;;;;5031449;28;20439;-80
2021/10/27 16:34:23;;;;;;;13.93;3.87;;;7.00;96.30;;;;;;5016268;28;20204;-80
2021/10/27 16:36:49;;;;;;;5.10;4.13;;;7.00;96.30;;;;;;5022846;28;20175;-81
2021/10/27 16:39:16;;;;;;;5.13;4.17;;;7.00;96.30;;;;;;5007376;28;20184;-82
2021/10/27 16:41:42;;;;;;;3.77;3.37;;;6.90;96.30;;;;;;5005107;28;20415;-80
2021/10/27 16:44:08;;;;;;;3.73;3.43;;;6.80;96.30;;;;;;5014266;28;20763;-80
2021/10/27 16:46:34;;;;;;;5.40;3.70;;;6.70;96.30;;;;;;4997162;28;20515;-81
2021/10/27 16:48:59;;;;;;;5.80;3.87;;;6.50;96.30;;;;;;5013443;28;20419;-81
2021/10/27 16:51:25;;;;;;;5.53;3.83;;;6.40;96.30;;;;;;5014482;28;20813;-81
2021/10/27 16:53:51;;;;;;;4.20;3.80;;;6.40;96.30;;;;;;4997097;28;20204;-82
2021/10/27 16:56:16;;;;;;;4.80;3.80;;;6.30;96.30;;;;;;4997615;28;20656;-81
2021/10/27 16:58:42;;;;;;;6.57;4.20;;;6.20;96.30;;;;;;4997246;28;20187;-81
2021/10/27 17:01:07;;;;;;;5.20;3.80;;;6.20;96.30;;;;;;4996294;28;20715;-81
2021/10/27 17:03:34;;;;;;;4.73;4.30;;;6.10;96.30;;;;;;5013530;28;20260;-81
2021/10/27 17:05:59;;;;;;;4.70;3.90;;;6.10;96.30;;;;;;5014987;28;20177;-82
2021/10/27 17:08:25;;;;;;;9.33;4.57;;;6.00;96.30;;;;;;5013808;28;20442;-80
2021/10/27 17:10:53;;;;;;;5.43;4.50;;;6.20;96.30;;;;;;4997181;28;20288;-81
2021/10/27 17:13:20;;;;;;;16.03;6.80;;;6.10;96.30;;;;;;5021058;28;20457;-81
2021/10/27 17:15:46;;;;;;;9.10;6.90;;;6.20;96.30;;;;;;5016953;28;20975;-81
2021/10/27 17:18:14;;;;;;;7.90;6.93;;;6.20;96.30;;;;;;5015204;28;20412;-82
2021/10/27 17:20:40;;;;;;;6.40;5.23;;;6.20;96.30;;;;;;5000008;28;20441;-82
2021/10/27 17:23:07;;;;;;;8.67;5.77;;;6.10;96.30;;;;;;5029423;28;20931;-82
2021/10/27 17:25:34;;;;;;;5.77;5.17;;;6.10;96.30;;;;;;5012967;28;20177;-81
2021/10/27 17:28:00;;;;;;;6.10;4.70;;;6.10;96.30;;;;;;5014735;28;20447;-82
2021/10/27 17:30:26;;;;;;;7.00;5.03;;;6.00;96.30;;;;;;5014073;28;20411;-82
2021/10/27 17:32:53;;;;;;;5.20;4.30;;;6.00;96.30;;;;;;5007906;28;20204;-81
2021/10/27 17:35:19;;;;;;;5.07;3.60;;;5.90;96.30;;;;;;5033685;28;20602;-81
2021/10/27 17:37:50;;;;;;;4.23;3.70;;;5.70;96.30;;;;;;5017524;28;20415;-81
2021/10/27 17:40:36;;;;;;;5.00;4.07;;;5.60;96.30;;;;;;5005733;28;20959;-80
2021/10/27 17:43:03;;;;;;;77.17;44.67;;;5.70;96.30;;;;;;4993586;28;20429;-79
2021/10/27 17:45:37;;;;;;;15.43;10.90;;;5.70;96.30;;;;;;4996080;28;20420;-78
2021/10/27 17:48:11;;;;;;;11.40;8.63;;;5.60;96.30;;;;;;4993305;28;20797;-79
2021/10/27 17:58:32;;;;;;;31.33;18.63;;;5.30;96.30;;;;;;5018541;28;20547;-81
2021/10/27 18:01:03;;;;;;;35.77;21.27;;;5.40;96.30;;;;;;5031388;28;20463;-78
2021/10/27 18:03:30;;;;;;;31.23;19.27;;;5.40;96.30;;;;;;5014225;28;20422;-79
2021/10/27 18:05:57;;;;;;;23.53;16.07;;;5.50;96.30;;;;;;5014555;28;20419;-78
2021/10/27 18:08:24;;;;;;;65.97;41.90;;;5.50;96.30;;;;;;5014617;28;20438;-78
2021/10/27 18:10:53;;;;;;;23.13;12.60;;;5.70;96.30;;;;;;5005882;28;20502;-82
2021/10/27 18:13:23;;;;;;;133.97;81.53;;;5.90;96.30;;;;;;5012622;28;21122;-81
2021/10/27 18:15:51;;;;;;;17.83;13.43;;;5.90;96.30;;;;;;4997394;28;20416;-81
2021/10/27 18:18:28;;;;;;;32.50;23.23;;;6.00;96.30;;;;;;4997356;28;20422;-82
2021/10/27 18:20:53;;;;;;;13.73;10.10;;;6.10;96.30;;;;;;4997010;28;20435;-79
2021/10/27 18:24:05;;;;;;;141.47;115.57;;;5.90;96.30;;;;;;5011548;28;20482;-81
2021/10/27 18:37:20;;;;;;;7.90;6.03;;;5.20;96.30;;;;;;5012462;28;20395;-78
2021/10/27 18:40:03;;;;;;;7.27;4.70;;;5.00;96.30;;;;;;5011079;28;20418;-78
2021/10/27 18:42:41;;;;;;;4.83;4.33;;;4.90;96.30;;;;;;4993451;28;20951;-78
2021/10/27 18:45:08;;;;;;;10.13;6.17;;;4.90;96.30;;;;;;4994298;28;20412;-78
2021/10/27 18:47:36;;;;;;;7.80;6.20;;;4.80;96.30;;;;;;5010845;28;20423;-80
2021/10/27 18:50:04;;;;;;;18.70;7.37;;;4.90;96.30;;;;;;4994212;28;20416;-78
2021/10/27 18:55:02;;;;;;;9.30;7.97;;;4.80;96.30;;;;;;5011983;28;20462;-78
2021/10/27 19:00:24;;;;;;;15.40;11.57;;;5.00;96.30;;;;;;5013749;28;20398;-79
2021/10/27 19:11:11;;;;;;;18.57;14.30;;;4.80;96.30;;;;;;5011960;28;20489;-79
2021/10/27 19:16:04;;;;;;;15.60;10.70;;;4.90;96.30;;;;;;5013329;28;20621;-78
2021/10/27 19:18:33;;;;;;;18.57;12.07;;;4.80;96.30;;;;;;5013018;28;20169;-79
2021/10/27 19:20:59;;;;;;;17.37;10.97;;;4.90;96.30;;;;;;5011696;28;20431;-86
2021/10/27 19:23:25;;;;;;;17.73;11.70;;;4.90;96.30;;;;;;5012156;28;20911;-78
2021/10/27 19:28:43;;;;;;;12.17;7.93;;;4.60;96.30;;;;;;5012287;28;20399;-78
2021/10/27 19:31:17;;;;;;;14.80;8.37;;;4.50;96.30;;;;;;5012224;28;21010;-79
2021/10/27 20:07:12;;;;;;;9.53;6.67;;;4.50;96.30;;;;;;5015381;28;20450;-82
2021/10/27 20:09:58;;;;;;;12.20;5.80;;;4.30;96.30;;;;;;5014195;28;21121;-82
2021/10/27 20:15:05;;;;;;;9.03;6.63;;;4.50;96.30;;;;;;5014615;28;20482;-82
2021/10/27 20:54:36;;;;;;;19.00;12.53;;;4.90;96.30;;;;;;5013967;28;20861;-83
2021/10/27 20:57:04;;;;;;;11.13;6.93;;;4.60;96.30;;;;;;4996117;28;20478;-83
2021/10/27 20:59:37;;;;;;;8.90;6.70;;;4.40;96.30;;;;;;4995460;28;20426;-83
2021/10/27 21:04:44;;;;;;;6.10;5.50;;;4.40;96.30;;;;;;5013838;28;20423;-82
2021/10/27 21:12:40;;;;;;;9.43;8.10;;;4.30;96.30;;;;;;5013099;28;20518;-81
2021/10/27 21:15:06;;;;;;;10.40;7.40;;;3.90;96.30;;;;;;5013520;28;20450;-81
2021/10/27 21:17:32;;;;;;;10.47;5.53;;;3.80;96.30;;;;;;4996251;28;20498;-83
2021/10/27 21:19:59;;;;;;;111.63;7.13;;;3.50;96.30;;;;;;4996008;28;20916;-83
2021/10/27 21:22:25;;;;;;;62.50;6.50;;;3.20;96.30;;;;;;4995391;28;20200;-80
2021/10/27 21:24:52;;;;;;;8.73;5.90;;;3.10;96.30;;;;;;5013703;28;20420;-82
2021/10/27 21:43:29;;;;;;;5.57;4.00;;;2.70;96.30;;;;;;5013532;28;20466;-80
2021/10/27 21:45:55;;;;;;;6.90;5.20;;;2.60;96.30;;;;;;5011634;28;20911;-80
2021/10/27 21:48:21;;;;;;;8.50;5.90;;;2.60;96.30;;;;;;5013273;28;20249;-79
2021/10/27 21:50:48;;;;;;;6.47;5.70;;;2.70;96.30;;;;;;4995468;28;20201;-81
2021/10/27 21:53:15;;;;;;;7.70;4.90;;;2.80;96.30;;;;;;4994872;28;20514;-79
2021/10/27 21:55:41;;;;;;;9.20;5.73;;;2.80;96.30;;;;;;5013148;28;20961;-80
2021/10/27 21:58:07;;;;;;;5.13;4.63;;;2.70;96.30;;;;;;4995292;28;20408;-79
2021/10/27 22:00:41;;;;;;;8.07;5.53;;;2.60;96.30;;;;;;5011462;28;20416;-79
2021/10/27 22:03:08;;;;;;;8.30;4.60;;;2.50;96.30;;;;;;5010680;28;20226;-80
2021/10/27 22:05:34;;;;;;;6.80;5.63;;;2.40;96.30;;;;;;5011120;28;20573;-81
2021/10/27 22:07:59;;;;;;;5.80;5.30;;;2.40;96.30;;;;;;5012609;28;20963;-79
2021/10/27 22:10:25;;;;;;;7.57;4.83;;;2.40;96.30;;;;;;5012863;28;20251;-79
2021/10/27 22:12:50;;;;;;;12.57;5.83;;;2.40;96.30;;;;;;4994807;28;20568;-82
2021/10/27 22:15:17;;;;;;;21.67;6.00;;;2.40;96.30;;;;;;4995650;28;20208;-79
2021/10/27 22:17:42;;;;;;;6.70;5.67;;;2.40;96.30;;;;;;5012779;28;20404;-82
2021/10/27 22:20:09;;;;;;;6.37;4.93;;;2.40;96.30;;;;;;5012995;28;20223;-79
2021/10/27 22:22:36;;;;;;;10.70;5.50;;;2.30;96.30;;;;;;4994715;28;20192;-79
2021/10/27 22:25:01;;;;;;;6.10;5.43;;;2.30;96.30;;;;;;4995250;28;20474;-80
2021/10/27 22:27:27;;;;;;;6.27;5.20;;;2.20;96.30;;;;;;5012702;28;20815;-81
2021/10/27 22:29:53;;;;;;;6.07;5.43;;;2.20;96.30;;;;;;5012821;28;20612;-83
2021/10/27 22:32:18;;;;;;;7.73;5.50;;;2.20;96.30;;;;;;4994686;28;20279;-79
2021/10/27 22:34:43;;;;;;;5.70;4.70;;;2.10;96.30;;;;;;5011283;28;20227;-79
2021/10/27 22:37:09;;;;;;;10.20;4.87;;;2.00;96.30;;;;;;4995122;28;20311;-80
2021/10/27 22:39:35;;;;;;;7.50;5.73;;;2.00;96.30;;;;;;4995212;28;20169;-79
2021/10/27 22:42:00;;;;;;;6.20;5.10;;;2.10;96.30;;;;;;5012157;28;20193;-79
2021/10/27 22:44:26;;;;;;;7.83;5.20;;;2.10;96.30;;;;;;4995883;28;20264;-83
2021/10/27 22:46:51;;;;;;;13.37;8.00;;;2.20;96.30;;;;;;5011708;28;20274;-81
2021/10/27 22:49:17;;;;;;;10.07;6.90;;;2.50;96.30;;;;;;4994959;28;20760;-79
2021/10/27 22:51:45;;;;;;;8.20;5.70;;;2.60;96.30;;;;;;5010388;28;20204;-78
2021/10/27 22:54:11;;;;;;;16.13;10.63;;;2.90;96.30;;;;;;5011216;28;20459;-79
2021/10/27 22:56:36;;;;;;;9.77;6.00;;;2.90;96.30;;;;;;4995426;28;20411;-78
2021/10/27 22:59:02;;;;;;;8.70;6.30;;;2.90;96.30;;;;;;4994913;28;20420;-82
2021/10/27 23:01:38;;;;;;;7.67;5.33;;;2.80;96.30;;;;;;5010263;28;20692;-81
2021/10/27 23:04:29;;;;;;;11.07;5.50;;;2.60;96.30;;;;;;5011704;28;20461;-78
2021/10/27 23:07:03;;;;;;;10.30;6.90;;;2.30;96.30;;;;;;4995512;28;20486;-81
2021/10/27 23:09:34;;;;;;;9.43;6.50;;;2.30;96.30;;;;;;4995362;28;20412;-80
2021/10/27 23:12:23;;;;;;;7.23;5.27;;;2.30;96.30;;;;;;5012086;28;20431;-78
2021/10/27 23:15:16;;;;;;;6.20;5.60;;;2.20;96.30;;;;;;5012801;28;20463;-79
2021/10/27 23:44:52;;;;;;;11.13;4.20;;;2.20;96.30;;;;;;5019802;28;20419;-82
2021/10/27 23:47:18;;;;;;;7.33;4.00;;;2.00;96.30;;;;;;5017237;28;20384;-82
2021/10/27 23:49:47;;;;;;;5.23;3.63;;;1.90;96.30;;;;;;4999574;28;20419;-82
2021/10/27 23:52:18;;;;;;;5.57;3.73;;;1.80;96.30;;;;;;4998833;28;20959;-82
2021/10/27 23:54:55;;;;;;;5.70;4.20;;;1.70;96.30;;;;;;5000215;28;20503;-81
